トロムソ の空港の天気 - METARとTAF

トロムソ空港 ( ENTC / TOS ) - ノルウェー トロムス県トロムソ
飛行場実況気象(Metar)
観測時間09/23 00:50 CEST (09/22 22:50 UTC)
風向・風速南南西 6m/s
視程10km以上
天気現象弱い霧雨
全天の4割程度の雲 雲底高度 1280m
全天の8割程度の雲 雲底高度 1830m
気温9℃
湿度81%
気圧967hPa
METARENTC 222250Z 20011KT 9999 -DZ SCT042 BKN060 09/06 Q0967 RMK WIND 2600FT 18018KT
過去の天気等 Google飛行場航空写真 Wunderground天気予報

過去48時間のMETAR

飛行場予報(TAF)
発表時間: -
22日23時 CEST ~ 23日20時 CEST に一時的に
風向・風速南南西 10m/s
23日17時 CEST ~ 23日20時 CEST に一時的に
風向・風速西 13m/s
少しの積乱雲 雲底高度 370m
全天の8割程度の雲 雲底高度 430m
TAF COR ENTC 2218/2318 21008KT 9999 -SHRA FEW010 BKN040
TEMPO 2221/2318 21020KT
TEMPO 2315/2318 28025KT FEW012CB BKN014